Time;durP1;ratioP1;P1;durP2;ratioP2;P2;SDS_P1;SDS_P2;PMS_P1;PMS_P2;Temp;Humidity;BMP_temperature;BMP_pressure;BME280_temperature;BME280_humidity;BME280_pressure;Samples;Min_cycle;Max_cycle;Signal;HPM_P1;HPM_P2
2022/01/20 00:00:54;;;;;;;;;;;2.40;99.90;;;;;;5033372;28;19929;-50
2022/01/20 00:03:23;;;;;;;;;;;2.60;99.90;;;;;;5032197;28;19925;-51
2022/01/20 00:06:53;;;;;;;;;;;2.60;99.90;;;;;;5033384;28;19929;-51
2022/01/20 00:09:22;;;;;;;;;;;2.60;99.90;;;;;;5032325;28;19931;-51
2022/01/20 00:26:00;;;;;;;;;;;2.50;99.90;;;;;;4971744;28;20008;-51
2022/01/20 00:28:41;;;;;;;;;;;2.60;99.90;;;;;;4970858;28;20392;-51
2022/01/20 00:31:25;;;;;;;;;;;2.60;99.90;;;;;;5006208;28;20410;-51
2022/01/20 00:33:56;;;;;;;;;;;2.60;99.90;;;;;;5019877;28;19960;-52
2022/01/20 00:39:09;;;;;;;;;;;2.60;99.90;;;;;;5031438;28;19927;-51
2022/01/20 00:41:35;;;;;;;;;;;2.60;99.90;;;;;;5032582;28;19932;-51
2022/01/20 00:44:02;;;;;;;;;;;2.70;99.90;;;;;;5032050;28;19932;-51
2022/01/20 00:46:29;;;;;;;;;;;2.80;99.90;;;;;;5032453;28;19987;-51
2022/01/20 00:48:56;;;;;;;;;;;2.60;99.90;;;;;;5031867;28;19925;-52
2022/01/20 00:51:24;;;;;;;;;;;2.60;99.90;;;;;;5032030;28;19979;-51
2022/01/20 00:53:51;;;;;;;;;;;2.50;99.90;;;;;;5031396;28;20034;-50
2022/01/20 00:56:19;;;;;;;;;;;2.80;99.90;;;;;;5031867;28;20023;-51
2022/01/20 00:58:46;;;;;;;;;;;2.80;99.90;;;;;;5032503;28;19971;-52
2022/01/20 01:01:13;;;;;;;;;;;2.80;99.90;;;;;;5032007;28;19925;-52
2022/01/20 01:03:39;;;;;;;;;;;2.80;99.90;;;;;;5031799;28;19951;-51
2022/01/20 01:06:17;;;;;;;;;;;3.00;99.90;;;;;;5032226;28;19925;-51
2022/01/20 01:08:44;;;;;;;;;;;3.10;99.90;;;;;;5031522;28;19928;-51
2022/01/20 01:11:10;;;;;;;;;;;3.30;99.90;;;;;;5032060;28;19932;-51
2022/01/20 01:13:39;;;;;;;;;;;3.10;99.90;;;;;;5031725;28;19925;-51
2022/01/20 01:16:09;;;;;;;;;;;3.10;99.90;;;;;;5032228;28;19956;-51
2022/01/20 01:21:29;;;;;;;;;;;3.10;99.90;;;;;;5031518;28;19932;-51
2022/01/20 01:23:56;;;;;;;;;;;2.90;99.90;;;;;;5032197;28;20006;-51
2022/01/20 01:26:27;;;;;;;;;;;2.80;99.90;;;;;;5031727;28;19932;-51
2022/01/20 01:28:56;;;;;;;;;;;2.70;99.90;;;;;;5016141;28;19925;-51
2022/01/20 01:31:34;;;;;;;;;;;2.50;99.90;;;;;;5031718;28;19925;-51
2022/01/20 01:34:04;;;;;;;;;;;2.30;99.90;;;;;;5031999;28;19925;-52
2022/01/20 01:36:44;;;;;;;;;;;2.30;99.90;;;;;;5031888;28;19925;-51
2022/01/20 01:39:12;;;;;;;;;;;2.20;99.90;;;;;;5031270;28;19929;-51
2022/01/20 01:41:39;;;;;;;;;;;2.20;99.90;;;;;;5031083;28;19925;-51
2022/01/20 01:44:09;;;;;;;;;;;2.10;99.90;;;;;;5031190;28;19991;-51
2022/01/20 01:46:36;;;;;;;;;;;2.20;99.90;;;;;;5031622;28;19932;-51
2022/01/20 01:49:04;;;;;;;;;;;2.10;99.90;;;;;;5024798;28;20353;-51
2022/01/20 01:51:30;;;;;;;;;;;2.00;99.90;;;;;;5034085;28;19925;-50
2022/01/20 01:53:57;;;;;;;;;;;2.10;99.90;;;;;;5035518;28;19972;-50
2022/01/20 01:56:24;;;;;;;;;;;2.00;99.90;;;;;;5035775;28;19925;-51
2022/01/20 01:58:51;;;;;;;;;;;2.00;99.90;;;;;;5030042;28;19929;-51
2022/01/20 02:01:19;;;;;;;;;;;2.10;99.90;;;;;;5034650;28;19986;-50
2022/01/20 02:03:56;;;;;;;;;;;2.00;99.90;;;;;;5033860;28;19928;-51
2022/01/20 02:06:51;;;;;;;;;;;2.00;99.90;;;;;;5035242;28;20422;-51
2022/01/20 02:17:46;;;;;;;;;;;2.10;99.90;;;;;;5035480;28;19978;-51
2022/01/20 02:17:59;;;;;;;;;;;2.30;99.90;;;;;;5034748;28;19982;-51
2022/01/20 02:20:29;;;;;;;;;;;2.30;99.90;;;;;;5035641;28;19925;-51
2022/01/20 02:22:59;;;;;;;;;;;2.30;99.90;;;;;;5035169;28;20003;-51
2022/01/20 02:25:27;;;;;;;;;;;2.30;99.90;;;;;;5035537;28;19933;-50
2022/01/20 02:27:54;;;;;;;;;;;2.20;99.90;;;;;;5034946;28;20086;-51
2022/01/20 02:30:22;;;;;;;;;;;2.20;99.90;;;;;;5034982;28;20444;-51
2022/01/20 02:32:53;;;;;;;;;;;2.20;99.90;;;;;;5035485;28;19971;-51
2022/01/20 02:35:20;;;;;;;;;;;2.20;99.90;;;;;;5035106;28;20012;-51
2022/01/20 02:37:53;;;;;;;;;;;2.20;99.90;;;;;;5035008;28;19929;-51
2022/01/20 02:44:48;;;;;;;;;;;2.20;99.90;;;;;;5035012;28;19925;-51
2022/01/20 02:46:04;;;;;;;;;;;2.40;99.90;;;;;;5035348;28;19928;-51
2022/01/20 02:48:31;;;;;;;;;;;2.50;99.90;;;;;;5033795;28;19971;-51
2022/01/20 02:50:58;;;;;;;;;;;2.50;99.90;;;;;;5034863;28;19925;-51
2022/01/20 02:53:26;;;;;;;;;;;2.30;99.90;;;;;;5034932;28;20020;-51
2022/01/20 02:55:53;;;;;;;;;;;2.30;99.90;;;;;;5035175;28;19979;-51
2022/01/20 02:58:20;;;;;;;;;;;2.30;99.90;;;;;;5034131;28;19925;-51
2022/01/20 03:00:48;;;;;;;;;;;2.30;99.90;;;;;;5034632;28;19964;-50
2022/01/20 03:03:16;;;;;;;;;;;2.20;99.90;;;;;;5034109;28;19932;-50
2022/01/20 03:08:47;;;;;;;;;;;2.20;99.90;;;;;;5034373;28;20103;-51
2022/01/20 03:11:14;;;;;;;;;;;2.20;99.90;;;;;;5034745;28;19979;-50
2022/01/20 03:13:40;;;;;;;;;;;2.40;99.90;;;;;;5034621;28;19971;-50
2022/01/20 03:16:07;;;;;;;;;;;2.40;99.90;;;;;;5034788;28;20345;-51
2022/01/20 03:18:34;;;;;;;;;;;2.60;99.90;;;;;;5033184;28;19925;-50
2022/01/20 03:21:01;;;;;;;;;;;2.50;99.90;;;;;;5034133;28;19925;-50
2022/01/20 03:23:28;;;;;;;;;;;2.40;99.90;;;;;;5033955;28;19986;-50
2022/01/20 03:25:56;;;;;;;;;;;2.30;99.90;;;;;;5033527;28;19952;-50
2022/01/20 03:28:22;;;;;;;;;;;2.30;99.90;;;;;;5033808;28;19925;-51
2022/01/20 03:30:49;;;;;;;;;;;2.30;99.90;;;;;;5034177;28;19984;-50
2022/01/20 03:33:16;;;;;;;;;;;2.30;99.90;;;;;;5033957;28;19925;-51
2022/01/20 03:35:43;;;;;;;;;;;2.30;99.90;;;;;;5033808;28;20391;-50
2022/01/20 03:38:10;;;;;;;;;;;2.30;99.90;;;;;;5033899;28;19944;-50
2022/01/20 03:40:37;;;;;;;;;;;2.20;99.90;;;;;;5033990;28;19929;-50
2022/01/20 03:43:07;;;;;;;;;;;2.40;99.90;;;;;;5034303;28;19932;-50
2022/01/20 03:45:34;;;;;;;;;;;2.20;99.90;;;;;;5034152;28;19980;-50
2022/01/20 03:48:08;;;;;;;;;;;2.10;99.90;;;;;;5031347;28;19929;-49
2022/01/20 03:53:19;;;;;;;;;;;2.10;99.90;;;;;;5032743;28;20012;-50
2022/01/20 03:55:46;;;;;;;;;;;2.20;99.90;;;;;;5033782;28;20383;-51
2022/01/20 03:58:15;;;;;;;;;;;2.20;99.90;;;;;;5033529;28;19925;-51
2022/01/20 04:00:43;;;;;;;;;;;2.10;99.90;;;;;;5033820;28;20452;-50
2022/01/20 04:03:10;;;;;;;;;;;2.10;99.90;;;;;;5033234;28;19968;-50
2022/01/20 04:05:40;;;;;;;;;;;2.10;99.90;;;;;;5033618;28;19929;-51
2022/01/20 04:08:07;;;;;;;;;;;2.10;99.90;;;;;;5033542;28;20349;-50
2022/01/20 04:10:34;;;;;;;;;;;2.10;99.90;;;;;;5033274;28;19929;-50
2022/01/20 04:13:03;;;;;;;;;;;2.00;99.90;;;;;;5033421;28;19932;-50
2022/01/20 04:15:38;;;;;;;;;;;2.20;99.90;;;;;;5031683;28;19951;-51
2022/01/20 04:18:06;;;;;;;;;;;2.20;99.90;;;;;;5033038;28;19968;-50
2022/01/20 04:20:33;;;;;;;;;;;2.10;99.90;;;;;;5033539;28;19925;-50
2022/01/20 04:23:00;;;;;;;;;;;2.20;99.90;;;;;;5033315;28;20441;-50
2022/01/20 04:25:27;;;;;;;;;;;2.10;99.90;;;;;;5032970;28;20383;-50
2022/01/20 04:27:54;;;;;;;;;;;2.10;99.90;;;;;;5033048;28;19933;-51
2022/01/20 04:30:23;;;;;;;;;;;2.00;99.90;;;;;;5033161;28;19929;-50
2022/01/20 04:32:51;;;;;;;;;;;2.00;99.90;;;;;;5074447;22;20018;-51
2022/01/20 04:35:20;;;;;;;;;;;2.00;99.90;;;;;;5052473;28;19998;-51
2022/01/20 04:37:48;;;;;;;;;;;2.00;99.90;;;;;;5052295;28;20421;-51
2022/01/20 04:40:16;;;;;;;;;;;2.00;99.90;;;;;;5052315;28;19978;-50
2022/01/20 04:42:45;;;;;;;;;;;2.00;99.90;;;;;;5051730;28;20326;-49
2022/01/20 04:45:16;;;;;;;;;;;2.10;99.90;;;;;;5051674;28;19978;-49
2022/01/20 04:47:48;;;;;;;;;;;2.10;99.90;;;;;;5052109;28;20394;-49
2022/01/20 04:58:40;;;;;;;;;;;2.20;99.90;;;;;;5041265;28;19974;-49
2022/01/20 05:01:07;;;;;;;;;;;2.30;99.90;;;;;;5051518;28;20015;-49
2022/01/20 05:03:34;;;;;;;;;;;2.30;99.90;;;;;;5051262;28;20019;-48
2022/01/20 05:06:02;;;;;;;;;;;2.30;99.90;;;;;;5051518;28;20333;-49
2022/01/20 05:08:31;;;;;;;;;;;2.30;99.90;;;;;;5051220;28;20402;-50
2022/01/20 05:11:00;;;;;;;;;;;2.40;99.90;;;;;;5051940;28;20370;-49
2022/01/20 05:13:33;;;;;;;;;;;2.30;99.90;;;;;;5051555;28;19936;-52
2022/01/20 05:16:00;;;;;;;;;;;2.20;99.90;;;;;;5050696;28;19933;-51
2022/01/20 05:18:27;;;;;;;;;;;2.20;99.90;;;;;;5050990;28;19928;-51
2022/01/20 05:20:53;;;;;;;;;;;2.20;99.90;;;;;;5051736;28;19929;-51
2022/01/20 05:23:22;;;;;;;;;;;2.10;99.90;;;;;;5051429;28;19983;-51
2022/01/20 05:25:48;;;;;;;;;;;2.10;99.90;;;;;;5051172;28;19925;-52
2022/01/20 05:28:15;;;;;;;;;;;2.00;99.90;;;;;;5050556;28;19987;-51
2022/01/20 05:30:42;;;;;;;;;;;2.10;99.90;;;;;;5054931;28;19929;-51
2022/01/20 05:33:09;;;;;;;;;;;2.10;99.90;;;;;;5051445;28;19947;-52
2022/01/20 05:35:36;;;;;;;;;;;2.10;99.90;;;;;;5050964;28;19929;-50
2022/01/20 05:38:06;;;;;;;;;;;2.00;99.90;;;;;;5050586;28;19932;-50
2022/01/20 05:40:35;;;;;;;;;;;1.90;99.90;;;;;;5051485;28;19924;-53
2022/01/20 05:43:02;;;;;;;;;;;1.80;99.90;;;;;;5050851;28;20024;-52
2022/01/20 05:45:29;;;;;;;;;;;1.80;99.90;;;;;;5051016;28;19948;-52
2022/01/20 05:48:08;;;;;;;;;;;1.70;99.90;;;;;;5050829;28;19929;-51
2022/01/20 05:50:35;;;;;;;;;;;1.80;99.90;;;;;;5049424;28;19969;-52
2022/01/20 05:53:02;;;;;;;;;;;1.70;99.90;;;;;;5032842;28;20391;-51
2022/01/20 05:55:29;;;;;;;;;;;1.60;99.90;;;;;;5046031;28;19925;-52
2022/01/20 05:58:01;;;;;;;;;;;1.60;99.90;;;;;;5051103;28;19925;-52
2022/01/20 06:00:28;;;;;;;;;;;1.60;99.90;;;;;;5050892;28;20025;-51
2022/01/20 06:05:40;;;;;;;;;;;1.70;99.90;;;;;;5047734;28;20010;-50
2022/01/20 06:08:09;;;;;;;;;;;1.70;99.90;;;;;;5050829;28;19963;-48
2022/01/20 06:10:36;;;;;;;;;;;1.70;99.90;;;;;;5050119;28;20456;-48
2022/01/20 06:13:06;;;;;;;;;;;1.70;99.90;;;;;;5044661;28;19933;-50
2022/01/20 06:15:33;;;;;;;;;;;1.60;99.90;;;;;;5050944;28;20084;-49
2022/01/20 06:18:00;;;;;;;;;;;1.60;99.90;;;;;;5049546;28;19933;-49
2022/01/20 06:20:28;;;;;;;;;;;1.60;99.90;;;;;;5050217;28;19932;-48
2022/01/20 06:22:54;;;;;;;;;;;1.50;99.90;;;;;;5050585;28;19951;-49
2022/01/20 06:25:21;;;;;;;;;;;1.50;99.90;;;;;;5049236;28;19937;-49
2022/01/20 06:27:48;;;;;;;;;;;1.40;99.90;;;;;;5050210;28;19952;-47
2022/01/20 06:30:16;;;;;;;;;;;1.50;99.90;;;;;;5050075;28;19925;-48
2022/01/20 06:32:43;;;;;;;;;;;1.60;99.90;;;;;;5050408;28;19925;-48
2022/01/20 06:35:10;;;;;;;;;;;1.60;99.90;;;;;;5049976;28;19925;-48
2022/01/20 06:37:37;;;;;;;;;;;1.50;99.90;;;;;;5050670;28;20386;-48
2022/01/20 06:40:06;;;;;;;;;;;1.50;99.90;;;;;;5053148;28;19929;-48
2022/01/20 06:42:32;;;;;;;;;;;1.50;99.90;;;;;;5052533;28;19936;-49
2022/01/20 06:44:59;;;;;;;;;;;1.60;99.90;;;;;;5054000;28;19924;-49
2022/01/20 06:47:27;;;;;;;;;;;1.50;99.90;;;;;;5051772;28;19925;-50
2022/01/20 06:49:54;;;;;;;;;;;1.50;99.90;;;;;;5049152;28;19944;-49
2022/01/20 06:52:21;;;;;;;;;;;1.40;99.90;;;;;;5053507;28;19987;-49
2022/01/20 06:54:48;;;;;;;;;;;1.30;99.90;;;;;;5052098;28;20349;-49
2022/01/20 06:57:14;;;;;;;;;;;1.40;99.90;;;;;;5051132;28;19929;-51
2022/01/20 06:59:41;;;;;;;;;;;1.30;99.90;;;;;;5047315;28;19936;-48
2022/01/20 07:02:09;;;;;;;;;;;1.30;99.90;;;;;;5052426;28;19932;-49
2022/01/20 07:04:38;;;;;;;;;;;1.30;99.90;;;;;;5053605;28;19925;-49
2022/01/20 07:07:05;;;;;;;;;;;1.40;99.90;;;;;;5052606;28;19925;-48
2022/01/20 07:09:32;;;;;;;;;;;1.40;99.90;;;;;;5050777;28;19933;-50
2022/01/20 07:11:59;;;;;;;;;;;1.40;99.90;;;;;;5053242;28;19924;-49
2022/01/20 07:14:26;;;;;;;;;;;1.50;99.90;;;;;;5052795;28;19925;-50
2022/01/20 07:16:53;;;;;;;;;;;1.40;99.90;;;;;;5050045;28;20045;-49
2022/01/20 07:19:20;;;;;;;;;;;1.40;99.90;;;;;;5053638;28;19925;-49
2022/01/20 07:21:48;;;;;;;;;;;1.40;99.90;;;;;;5052128;28;19931;-49
2022/01/20 07:24:15;;;;;;;;;;;1.40;99.90;;;;;;5053269;28;20382;-49
2022/01/20 07:26:42;;;;;;;;;;;1.40;99.90;;;;;;5053728;28;19978;-50
2022/01/20 07:29:09;;;;;;;;;;;1.40;99.90;;;;;;5053272;28;20456;-49
2022/01/20 07:31:36;;;;;;;;;;;1.40;99.90;;;;;;5053016;28;20062;-49
2022/01/20 07:34:03;;;;;;;;;;;1.40;99.90;;;;;;5053414;28;20566;-50
2022/01/20 07:36:29;;;;;;;;;;;1.40;99.90;;;;;;5052560;28;19929;-49
2022/01/20 07:39:00;;;;;;;;;;;1.50;99.90;;;;;;5049997;28;20378;-50
2022/01/20 07:41:29;;;;;;;;;;;1.80;99.90;;;;;;5052820;28;20208;-49
2022/01/20 07:43:56;;;;;;;;;;;1.80;99.90;;;;;;5053552;28;19925;-49
2022/01/20 07:46:22;;;;;;;;;;;1.80;99.90;;;;;;5053257;28;19925;-49
2022/01/20 07:48:49;;;;;;;;;;;1.90;99.90;;;;;;5052727;28;19933;-49
2022/01/20 07:51:17;;;;;;;;;;;1.80;99.90;;;;;;5053364;28;19931;-49
2022/01/20 07:53:43;;;;;;;;;;;1.80;99.90;;;;;;5053503;28;19928;-49
2022/01/20 07:56:11;;;;;;;;;;;1.70;99.90;;;;;;5040274;28;20015;-49
2022/01/20 07:58:38;;;;;;;;;;;1.70;99.90;;;;;;5033775;28;19925;-49
2022/01/20 08:01:05;;;;;;;;;;;1.70;99.90;;;;;;5052416;28;19932;-49
2022/01/20 08:03:32;;;;;;;;;;;1.70;99.90;;;;;;5049745;28;19925;-47
2022/01/20 08:05:59;;;;;;;;;;;1.70;99.90;;;;;;5051051;28;19925;-49
2022/01/20 08:08:26;;;;;;;;;;;1.70;99.90;;;;;;5044058;28;19978;-48
2022/01/20 08:10:52;;;;;;;;;;;1.70;99.90;;;;;;5044700;28;19986;-49
2022/01/20 08:13:21;;;;;;;;;;;1.60;99.90;;;;;;5046950;28;20391;-49
2022/01/20 08:15:48;;;;;;;;;;;1.70;99.90;;;;;;5052149;28;19929;-49
2022/01/20 08:18:15;;;;;;;;;;;1.80;99.90;;;;;;5052397;28;19931;-48
2022/01/20 08:20:42;;;;;;;;;;;1.70;99.90;;;;;;5052571;28;19979;-49
2022/01/20 08:23:09;;;;;;;;;;;1.60;99.90;;;;;;5052468;28;19979;-49
2022/01/20 08:25:36;;;;;;;;;;;1.70;99.90;;;;;;5052507;28;20353;-48
2022/01/20 08:28:03;;;;;;;;;;;1.70;99.90;;;;;;5052018;28;19928;-48
2022/01/20 08:30:31;;;;;;;;;;;1.70;99.90;;;;;;5052160;28;19929;-48
2022/01/20 08:32:59;;;;;;;;;;;1.80;99.90;;;;;;5052370;28;19928;-48
2022/01/20 08:35:31;;;;;;;;;;;1.70;99.90;;;;;;5053333;28;20390;-49
2022/01/20 08:37:59;;;;;;;;;;;1.60;99.90;;;;;;5063087;28;19932;-48
2022/01/20 08:40:26;;;;;;;;;;;1.70;99.90;;;;;;5051569;28;20374;-49
2022/01/20 08:42:54;;;;;;;;;;;1.70;99.90;;;;;;5051137;28;19983;-49
2022/01/20 08:45:22;;;;;;;;;;;1.70;99.90;;;;;;5053373;28;19932;-47
2022/01/20 08:47:54;;;;;;;;;;;1.80;99.90;;;;;;5051691;28;19978;-48
2022/01/20 08:50:21;;;;;;;;;;;1.90;99.90;;;;;;5051959;28;20416;-48
2022/01/20 08:52:47;;;;;;;;;;;2.00;99.90;;;;;;5051854;28;19925;-48
2022/01/20 08:55:15;;;;;;;;;;;2.10;99.90;;;;;;5051584;28;19929;-49
2022/01/20 08:57:41;;;;;;;;;;;2.00;99.90;;;;;;5051710;28;19925;-49
2022/01/20 09:00:09;;;;;;;;;;;2.00;99.90;;;;;;5048119;28;19928;-48
2022/01/20 09:02:37;;;;;;;;;;;2.00;99.90;;;;;;5048537;28;19979;-49
2022/01/20 09:05:05;;;;;;;;;;;2.00;99.90;;;;;;5050651;28;19929;-48
2022/01/20 09:07:33;;;;;;;;;;;2.20;99.90;;;;;;5051089;28;19925;-49
2022/01/20 09:10:04;;;;;;;;;;;2.10;99.90;;;;;;5051040;28;19951;-49
2022/01/20 09:15:31;;;;;;;;;;;2.30;99.90;;;;;;5050437;28;19928;-48
2022/01/20 09:17:59;;;;;;;;;;;2.50;99.90;;;;;;5049352;28;19965;-49
2022/01/20 09:20:27;;;;;;;;;;;2.30;99.90;;;;;;5051585;28;19932;-49
2022/01/20 09:22:55;;;;;;;;;;;2.30;99.90;;;;;;5046832;28;19928;-49
2022/01/20 09:25:22;;;;;;;;;;;2.40;99.90;;;;;;5033906;28;19925;-49
2022/01/20 09:27:50;;;;;;;;;;;2.30;99.90;;;;;;5033200;28;20367;-49
2022/01/20 09:30:19;;;;;;;;;;;2.10;99.90;;;;;;5050864;28;20023;-49
2022/01/20 09:32:57;;;;;;;;;;;2.20;99.90;;;;;;5050938;28;20330;-49
2022/01/20 09:35:24;;;;;;;;;;;2.10;99.90;;;;;;5050245;28;20020;-49
2022/01/20 09:37:52;;;;;;;;;;;2.20;99.90;;;;;;5050231;28;19971;-49
2022/01/20 09:40:19;;;;;;;;;;;2.10;99.90;;;;;;5052255;28;19928;-48
2022/01/20 09:42:46;;;;;;;;;;;1.90;99.90;;;;;;5049909;28;20318;-48
2022/01/20 09:45:17;;;;;;;;;;;2.00;99.90;;;;;;5050456;28;20441;-50
2022/01/20 09:47:45;;;;;;;;;;;2.00;99.90;;;;;;5049923;28;20015;-49
2022/01/20 09:50:14;;;;;;;;;;;2.20;99.90;;;;;;5050646;28;19925;-50
2022/01/20 09:52:41;;;;;;;;;;;2.30;99.90;;;;;;5050756;28;19963;-50
2022/01/20 09:55:10;;;;;;;;;;;2.20;99.90;;;;;;5052240;28;20399;-50
2022/01/20 09:57:37;;;;;;;;;;;2.20;99.90;;;;;;5052256;28;19924;-49
2022/01/20 10:00:05;;;;;;;;;;;2.20;99.90;;;;;;5050524;28;19982;-50
2022/01/20 10:02:32;;;;;;;;;;;2.30;99.90;;;;;;5046645;28;19929;-49
2022/01/20 10:04:59;;;;;;;;;;;2.20;99.90;;;;;;5050746;28;19924;-50
2022/01/20 10:07:31;;;;;;;;;;;2.30;99.90;;;;;;5048481;28;19925;-50
2022/01/20 10:09:58;;;;;;;;;;;2.20;99.90;;;;;;5050046;28;19925;-50
2022/01/20 10:12:31;;;;;;;;;;;2.30;99.90;;;;;;5052537;28;19975;-49
2022/01/20 10:14:59;;;;;;;;;;;2.30;99.90;;;;;;5054514;28;19952;-49
2022/01/20 10:17:29;;;;;;;;;;;2.30;99.90;;;;;;5055227;28;20311;-50
2022/01/20 10:19:58;;;;;;;;;;;2.20;99.90;;;;;;5053350;28;20453;-50
2022/01/20 10:22:25;;;;;;;;;;;2.20;99.90;;;;;;5053437;28;19963;-51
2022/01/20 10:24:59;;;;;;;;;;;2.20;99.90;;;;;;5047209;28;19929;-50
2022/01/20 10:27:27;;;;;;;;;;;2.30;99.90;;;;;;5049581;28;19924;-51
2022/01/20 10:29:56;;;;;;;;;;;2.60;99.90;;;;;;5054024;28;20368;-49
2022/01/20 10:32:23;;;;;;;;;;;2.70;99.90;;;;;;5099600;22;19924;-51
2022/01/20 10:34:50;;;;;;;;;;;2.60;99.90;;;;;;5090419;28;19927;-52
2022/01/20 10:37:23;;;;;;;;;;;2.60;99.90;;;;;;5096175;28;20309;-52
2022/01/20 10:39:50;;;;;;;;;;;2.50;99.90;;;;;;5092729;28;19932;-51
2022/01/20 10:42:20;;;;;;;;;;;2.70;99.90;;;;;;5080837;28;19924;-52
2022/01/20 10:44:49;;;;;;;;;;;2.90;99.90;;;;;;5074678;28;20005;-52
2022/01/20 10:47:16;;;;;;;;;;;3.00;99.90;;;;;;5074384;28;19925;-52
2022/01/20 10:49:44;;;;;;;;;;;3.00;99.90;;;;;;5074034;28;19924;-52
2022/01/20 10:52:11;;;;;;;;;;;2.80;99.90;;;;;;5074874;28;19925;-52
2022/01/20 10:54:39;;;;;;;;;;;2.80;99.90;;;;;;5075113;28;19978;-52
2022/01/20 10:57:07;;;;;;;;;;;2.60;99.90;;;;;;5075291;28;19933;-51
2022/01/20 10:59:35;;;;;;;;;;;2.60;99.90;;;;;;5067772;28;19928;-52
2022/01/20 11:02:04;;;;;;;;;;;2.60;99.90;;;;;;5066562;28;20402;-52
2022/01/20 11:04:31;;;;;;;;;;;2.60;99.90;;;;;;5070123;28;19928;-51
2022/01/20 11:07:02;;;;;;;;;;;2.70;99.90;;;;;;5054606;28;20437;-52
2022/01/20 11:09:31;;;;;;;;;;;2.80;99.90;;;;;;5054713;28;19974;-51
2022/01/20 11:11:58;;;;;;;;;;;2.90;99.90;;;;;;5071795;28;19924;-52
2022/01/20 11:14:25;;;;;;;;;;;3.00;99.90;;;;;;5070762;28;19925;-52
2022/01/20 11:16:52;;;;;;;;;;;3.00;99.90;;;;;;5072224;28;20006;-52
2022/01/20 11:19:21;;;;;;;;;;;3.10;99.90;;;;;;5074045;28;19924;-51
2022/01/20 11:21:48;;;;;;;;;;;3.20;99.90;;;;;;5073296;28;19994;-52
2022/01/20 11:24:19;;;;;;;;;;;3.30;99.90;;;;;;5073423;28;20390;-52
2022/01/20 11:26:52;;;;;;;;;;;3.40;99.90;;;;;;5075657;28;19970;-52
2022/01/20 11:29:20;;;;;;;;;;;3.30;99.90;;;;;;5074710;28;19924;-52
2022/01/20 11:31:48;;;;;;;;;;;3.20;99.90;;;;;;5073447;28;19994;-51
2022/01/20 11:34:15;;;;;;;;;;;3.20;99.90;;;;;;5074384;28;19986;-51
2022/01/20 11:36:43;;;;;;;;;;;3.30;99.90;;;;;;5062637;28;20001;-51
2022/01/20 11:39:10;;;;;;;;;;;3.30;99.90;;;;;;5071487;28;19924;-51
2022/01/20 11:41:40;;;;;;;;;;;3.40;99.90;;;;;;5073375;28;19978;-52
2022/01/20 11:44:11;;;;;;;;;;;3.60;99.90;;;;;;5066888;28;19932;-51
2022/01/20 11:46:39;;;;;;;;;;;3.60;99.90;;;;;;5077725;28;19970;-51
2022/01/20 11:49:07;;;;;;;;;;;3.50;99.90;;;;;;5074235;28;20341;-51
2022/01/20 11:51:45;;;;;;;;;;;3.60;99.90;;;;;;5069171;28;19934;-50
2022/01/20 11:54:12;;;;;;;;;;;3.60;99.90;;;;;;5067586;28;19924;-51
2022/01/20 11:56:40;;;;;;;;;;;3.70;99.90;;;;;;5067844;28;20023;-50
2022/01/20 11:59:08;;;;;;;;;;;3.70;99.90;;;;;;5068374;28;19930;-51
2022/01/20 12:01:45;;;;;;;;;;;3.80;99.90;;;;;;5072610;28;19936;-51
2022/01/20 12:04:12;;;;;;;;;;;3.70;99.90;;;;;;5072291;28;19932;-51
2022/01/20 12:06:42;;;;;;;;;;;3.80;99.90;;;;;;5071672;28;22521;-52
2022/01/20 12:09:14;;;;;;;;;;;3.90;99.90;;;;;;5072532;28;19929;-51
2022/01/20 12:11:44;;;;;;;;;;;3.90;99.90;;;;;;5072950;28;19924;-52
2022/01/20 12:14:12;;;;;;;;;;;3.80;99.90;;;;;;5053730;28;19948;-52
2022/01/20 12:16:40;;;;;;;;;;;3.80;99.90;;;;;;5065881;28;19925;-51
2022/01/20 12:19:08;;;;;;;;;;;3.90;99.90;;;;;;5072985;28;19924;-52
2022/01/20 12:21:36;;;;;;;;;;;3.90;99.90;;;;;;5058879;28;19960;-51
2022/01/20 12:24:03;;;;;;;;;;;3.80;99.90;;;;;;5063557;28;20394;-51
2022/01/20 12:26:34;;;;;;;;;;;3.90;99.90;;;;;;5067287;28;19933;-52
2022/01/20 12:29:02;;;;;;;;;;;3.90;99.90;;;;;;5053177;28;20019;-52
2022/01/20 12:31:29;;;;;;;;;;;3.90;99.90;;;;;;5053064;28;19925;-51
2022/01/20 12:33:56;;;;;;;;;;;3.90;99.90;;;;;;5052952;28;20011;-52
2022/01/20 12:36:23;;;;;;;;;;;4.00;99.90;;;;;;5052422;28;20293;-52
2022/01/20 12:38:51;;;;;;;;;;;4.10;99.90;;;;;;5061449;28;19924;-51
2022/01/20 12:41:18;;;;;;;;;;;4.10;99.90;;;;;;5072803;28;19924;-51
2022/01/20 12:43:48;;;;;;;;;;;4.10;99.90;;;;;;5069105;28;19924;-52
2022/01/20 12:46:15;;;;;;;;;;;4.10;99.90;;;;;;5071463;28;19931;-50
2022/01/20 12:48:55;;;;;;;;;;;4.10;99.90;;;;;;5071545;28;19932;-51
2022/01/20 12:51:30;;;;;;;;;;;4.10;99.90;;;;;;5074773;28;19935;-51
2022/01/20 12:54:04;;;;;;;;;;;4.20;99.90;;;;;;5084128;28;19932;-51
2022/01/20 12:56:32;;;;;;;;;;;4.20;99.90;;;;;;5083726;28;19928;-52
2022/01/20 12:59:00;;;;;;;;;;;4.30;99.90;;;;;;5082440;28;19985;-52
2022/01/20 13:01:37;;;;;;;;;;;4.40;99.90;;;;;;5068465;28;19928;-52
2022/01/20 13:04:05;;;;;;;;;;;4.50;99.90;;;;;;5072153;28;19928;-52
2022/01/20 13:06:33;;;;;;;;;;;4.60;99.90;;;;;;5071382;28;19947;-52
2022/01/20 13:09:01;;;;;;;;;;;4.70;99.90;;;;;;5067709;28;19947;-51
2022/01/20 13:11:29;;;;;;;;;;;4.70;99.90;;;;;;5071722;28;20298;-52
2022/01/20 13:14:01;;;;;;;;;;;4.90;99.90;;;;;;5069008;28;19950;-51
2022/01/20 13:16:29;;;;;;;;;;;4.90;99.90;;;;;;5068175;28;19968;-52
2022/01/20 13:18:56;;;;;;;;;;;5.00;99.90;;;;;;5069975;28;19977;-51
2022/01/20 13:21:33;;;;;;;;;;;5.00;99.90;;;;;;5070957;28;19939;-52
2022/01/20 13:24:02;;;;;;;;;;;5.10;99.90;;;;;;5071397;28;20302;-52
2022/01/20 13:26:29;;;;;;;;;;;5.20;99.90;;;;;;5072641;28;19932;-52
2022/01/20 13:29:04;;;;;;;;;;;5.20;99.90;;;;;;5071591;28;20389;-51
2022/01/20 13:31:31;;;;;;;;;;;5.30;99.90;;;;;;5070173;28;19925;-51
2022/01/20 13:34:01;;;;;;;;;;;5.20;99.90;;;;;;5071869;28;20349;-52
2022/01/20 13:36:38;;;;;;;;;;;5.10;99.90;;;;;;5052033;28;19936;-52
2022/01/20 13:39:04;;;;;;;;;;;4.90;99.90;;;;;;5052914;28;19983;-52
2022/01/20 13:41:32;;;;;;;;;;;4.70;99.90;;;;;;5063102;28;19982;-51
2022/01/20 13:46:48;;;;;;;;;;;4.50;99.90;;;;;;5072773;28;19927;-51
2022/01/20 13:49:17;;;;;;;;;;;4.50;99.90;;;;;;5075211;28;19925;-52
2022/01/20 13:51:44;;;;;;;;;;;4.50;99.90;;;;;;5071756;28;19933;-51
2022/01/20 13:54:11;;;;;;;;;;;4.40;99.90;;;;;;5073495;28;20279;-52
2022/01/20 13:56:38;;;;;;;;;;;4.30;99.90;;;;;;5074050;28;19925;-51
2022/01/20 13:59:06;;;;;;;;;;;4.30;99.90;;;;;;5074769;28;19931;-52
2022/01/20 14:01:34;;;;;;;;;;;4.40;99.90;;;;;;5076190;28;19986;-51
2022/01/20 14:04:02;;;;;;;;;;;4.20;99.90;;;;;;5075918;28;19970;-51
2022/01/20 14:06:29;;;;;;;;;;;4.30;99.90;;;;;;5076326;28;19982;-51
2022/01/20 14:08:56;;;;;;;;;;;4.30;99.90;;;;;;5075291;28;19928;-51
2022/01/20 14:11:23;;;;;;;;;;;4.20;99.90;;;;;;5076133;28;19924;-51
2022/01/20 14:13:50;;;;;;;;;;;4.30;99.90;;;;;;5075975;28;19924;-52
2022/01/20 14:16:17;;;;;;;;;;;4.40;99.90;;;;;;5076276;28;19977;-51
2022/01/20 14:18:45;;;;;;;;;;;4.50;99.90;;;;;;5075359;28;19933;-51
2022/01/20 14:21:17;;;;;;;;;;;4.50;99.90;;;;;;5075890;28;20340;-51
2022/01/20 14:23:44;;;;;;;;;;;4.40;99.90;;;;;;5075298;28;19939;-52
2022/01/20 14:26:13;;;;;;;;;;;4.40;99.90;;;;;;5076213;28;20398;-52
2022/01/20 14:28:40;;;;;;;;;;;4.60;99.90;;;;;;5075516;28;19925;-51
2022/01/20 14:31:07;;;;;;;;;;;4.40;99.90;;;;;;5075333;28;19925;-51
2022/01/20 14:33:33;;;;;;;;;;;4.50;99.90;;;;;;5075343;28;20467;-51
2022/01/20 14:36:00;;;;;;;;;;;4.40;99.90;;;;;;5073464;28;19924;-51
2022/01/20 14:38:29;;;;;;;;;;;4.40;99.90;;;;;;5073379;28;20381;-52
2022/01/20 14:40:56;;;;;;;;;;;4.40;99.90;;;;;;5074469;28;20308;-51
2022/01/20 14:43:24;;;;;;;;;;;4.50;99.90;;;;;;5075498;28;19928;-52
2022/01/20 14:45:51;;;;;;;;;;;4.50;99.90;;;;;;5075737;28;19985;-51
2022/01/20 14:48:17;;;;;;;;;;;4.60;99.90;;;;;;5075119;28;20344;-51
2022/01/20 14:50:45;;;;;;;;;;;4.60;99.90;;;;;;5075148;28;19928;-52
2022/01/20 14:53:13;;;;;;;;;;;4.60;99.90;;;;;;5074171;28;20390;-51
2022/01/20 14:55:41;;;;;;;;;;;4.60;99.90;;;;;;5079131;28;19924;-52
2022/01/20 14:58:08;;;;;;;;;;;4.50;99.90;;;;;;5080686;28;19928;-51
2022/01/20 15:00:35;;;;;;;;;;;4.50;99.90;;;;;;5077965;28;19928;-51
2022/01/20 15:03:02;;;;;;;;;;;4.40;99.90;;;;;;5072898;28;19966;-51
2022/01/20 15:05:29;;;;;;;;;;;4.40;99.90;;;;;;5055000;28;19983;-52
2022/01/20 15:07:56;;;;;;;;;;;4.50;99.90;;;;;;5062431;28;19924;-52
2022/01/20 15:10:22;;;;;;;;;;;4.50;99.90;;;;;;5072305;28;19924;-52
2022/01/20 15:12:51;;;;;;;;;;;4.60;99.90;;;;;;5055205;28;19925;-52
2022/01/20 15:15:19;;;;;;;;;;;4.40;99.90;;;;;;5056126;28;20288;-52
2022/01/20 15:17:46;;;;;;;;;;;4.50;99.90;;;;;;5072767;28;19925;-52
2022/01/20 15:20:13;;;;;;;;;;;4.50;99.90;;;;;;5072634;28;20352;-51
2022/01/20 15:22:39;;;;;;;;;;;4.40;99.90;;;;;;5066175;28;19977;-51
2022/01/20 15:25:07;;;;;;;;;;;4.30;99.90;;;;;;5068579;28;19928;-52
2022/01/20 15:27:34;;;;;;;;;;;4.20;99.90;;;;;;5069009;28;19940;-52
2022/01/20 15:30:02;;;;;;;;;;;4.10;99.90;;;;;;5068515;28;20298;-51